Time;durP1;ratioP1;P1;durP2;ratioP2;P2;SDS_P1;SDS_P2;PMS_P1;PMS_P2;Temp;Humidity;BMP_temperature;BMP_pressure;BME280_temperature;BME280_humidity;BME280_pressure;Samples;Min_cycle;Max_cycle;Signal;HPM_P1;HPM_P2
2023/12/23 00:00:44;;;;;;;3.43;1.23;;;9.70;76.50;;;;;;5007749;28;20209;-75
2023/12/23 00:03:10;;;;;;;5.03;1.73;;;9.70;77.60;;;;;;5010676;28;20937;-73
2023/12/23 00:05:35;;;;;;;5.53;1.77;;;9.60;77.70;;;;;;5011050;28;20565;-75
2023/12/23 00:08:01;;;;;;;2.50;1.30;;;9.60;77.60;;;;;;5009533;28;20282;-75
2023/12/23 00:10:27;;;;;;;5.07;1.30;;;9.60;77.80;;;;;;5007575;28;20240;-75
2023/12/23 00:12:52;;;;;;;3.63;1.60;;;9.60;77.70;;;;;;5014387;28;21045;-75
2023/12/23 00:15:18;;;;;;;6.87;1.77;;;9.50;78.00;;;;;;5013695;28;20186;-75
2023/12/23 00:17:43;;;;;;;3.10;1.20;;;9.60;78.00;;;;;;5011219;28;20218;-73
2023/12/23 00:20:09;;;;;;;5.83;1.63;;;9.70;78.00;;;;;;5008450;28;20205;-75
2023/12/23 00:22:36;;;;;;;2.70;1.00;;;9.60;77.60;;;;;;5012766;28;20220;-73
2023/12/23 00:25:02;;;;;;;3.40;1.27;;;9.60;77.80;;;;;;5023694;28;20198;-74
2023/12/23 00:27:27;;;;;;;1.03;0.80;;;9.60;77.70;;;;;;5026689;28;20455;-74
2023/12/23 00:29:53;;;;;;;3.20;1.20;;;9.60;77.80;;;;;;5021170;28;20512;-74
2023/12/23 00:32:19;;;;;;;3.67;1.67;;;9.50;77.60;;;;;;5024805;28;20564;-74
2023/12/23 00:34:44;;;;;;;1.47;1.07;;;9.60;78.00;;;;;;5013930;28;20325;-73
2023/12/23 00:37:10;;;;;;;2.40;1.30;;;9.50;77.70;;;;;;5010854;28;20216;-76
2023/12/23 00:39:35;;;;;;;3.53;1.10;;;9.50;77.70;;;;;;5007707;28;20355;-76
2023/12/23 00:42:01;;;;;;;8.60;1.60;;;9.50;78.70;;;;;;5006654;28;20186;-75
2023/12/23 00:44:27;;;;;;;2.40;1.23;;;9.30;80.20;;;;;;5009419;28;20799;-74
2023/12/23 00:46:52;;;;;;;2.80;1.20;;;9.10;81.50;;;;;;5007088;28;20193;-74
2023/12/23 00:49:18;;;;;;;4.80;1.50;;;9.00;81.70;;;;;;5009396;28;20235;-75
2023/12/23 00:51:44;;;;;;;3.90;1.40;;;8.90;82.20;;;;;;5001561;28;20190;-74
2023/12/23 00:54:09;;;;;;;1.80;1.23;;;8.90;82.20;;;;;;5004657;28;20447;-76
2023/12/23 00:56:35;;;;;;;2.87;1.43;;;8.90;81.80;;;;;;5010490;28;20189;-75
2023/12/23 00:59:00;;;;;;;7.43;1.40;;;8.90;82.10;;;;;;5010782;28;20225;-76
2023/12/23 01:01:26;;;;;;;2.03;1.20;;;8.90;82.20;;;;;;5004122;28;21181;-76
2023/12/23 01:03:52;;;;;;;3.53;1.40;;;8.90;81.70;;;;;;5011162;28;20198;-76
2023/12/23 01:06:17;;;;;;;4.97;1.37;;;8.90;81.70;;;;;;5010522;28;20420;-75
2023/12/23 01:08:43;;;;;;;2.80;1.60;;;9.00;81.40;;;;;;5010237;28;20202;-76
2023/12/23 01:11:10;;;;;;;3.07;1.07;;;9.00;81.70;;;;;;5004332;28;20352;-76
2023/12/23 01:13:36;;;;;;;1.97;1.00;;;9.00;81.10;;;;;;5009462;28;20182;-77
2023/12/23 01:16:02;;;;;;;3.30;1.10;;;9.00;80.50;;;;;;5009859;28;20429;-76
2023/12/23 01:18:27;;;;;;;3.43;1.17;;;9.10;79.90;;;;;;5010709;28;20228;-75
2023/12/23 01:20:53;;;;;;;0.90;0.70;;;9.20;79.60;;;;;;5013438;28;20237;-75
2023/12/23 01:23:19;;;;;;;3.33;1.30;;;9.20;79.50;;;;;;5014960;28;20197;-76
2023/12/23 01:25:44;;;;;;;4.30;1.40;;;9.20;79.50;;;;;;5011311;28;20261;-75
2023/12/23 01:28:10;;;;;;;2.43;1.30;;;9.10;79.60;;;;;;5012302;28;20189;-76
2023/12/23 01:30:36;;;;;;;2.40;1.10;;;9.20;79.90;;;;;;5007962;28;20197;-76
2023/12/23 01:33:02;;;;;;;1.83;0.90;;;9.10;79.90;;;;;;5011705;28;20181;-75
2023/12/23 01:35:27;;;;;;;3.30;1.20;;;9.10;79.70;;;;;;5013787;28;20777;-77
2023/12/23 01:37:53;;;;;;;3.30;0.87;;;9.10;80.20;;;;;;5015589;28;20549;-77
2023/12/23 01:40:19;;;;;;;2.10;1.20;;;9.00;81.10;;;;;;5013495;28;20576;-77
2023/12/23 01:42:45;;;;;;;4.10;1.30;;;8.90;81.40;;;;;;5017410;28;20716;-77
2023/12/23 01:45:11;;;;;;;2.40;1.00;;;8.90;81.40;;;;;;5014067;28;20208;-77
2023/12/23 01:47:40;;;;;;;2.67;1.20;;;8.80;81.90;;;;;;5005975;28;20433;-77
2023/12/23 01:50:08;;;;;;;2.17;1.53;;;8.80;81.90;;;;;;5010645;28;20465;-76
2023/12/23 01:52:36;;;;;;;3.60;1.10;;;8.80;81.80;;;;;;5013255;28;20425;-75
2023/12/23 01:55:03;;;;;;;4.00;1.43;;;8.90;81.50;;;;;;5015593;28;20423;-77
2023/12/23 01:57:29;;;;;;;6.77;1.60;;;8.90;81.20;;;;;;5012885;28;20468;-76
2023/12/23 01:59:54;;;;;;;10.43;1.60;;;9.00;81.20;;;;;;5006545;28;20459;-77
2023/12/23 02:02:21;;;;;;;2.30;1.40;;;9.00;80.60;;;;;;5013436;28;20188;-77
2023/12/23 02:04:46;;;;;;;3.13;1.40;;;9.10;80.60;;;;;;5013577;28;20408;-76
2023/12/23 02:07:12;;;;;;;3.33;1.60;;;9.00;80.60;;;;;;5016507;28;20435;-76
2023/12/23 02:09:38;;;;;;;4.73;1.63;;;9.10;80.20;;;;;;5017315;28;20205;-75
2023/12/23 02:12:26;;;;;;;4.50;2.20;;;9.10;80.00;;;;;;5010604;28;20186;-75
2023/12/23 02:15:03;;;;;;;7.70;1.70;;;9.00;80.00;;;;;;5016016;28;20197;-77
2023/12/23 02:17:29;;;;;;;9.20;2.13;;;9.00;80.20;;;;;;5017217;28;20552;-76
2023/12/23 02:19:55;;;;;;;4.20;1.70;;;9.00;80.50;;;;;;5014663;28;20504;-76
2023/12/23 02:22:20;;;;;;;4.87;1.40;;;9.00;80.30;;;;;;5017732;28;20178;-76
2023/12/23 02:24:46;;;;;;;9.27;2.00;;;9.00;80.20;;;;;;5018768;28;20189;-76
2023/12/23 02:27:18;;;;;;;5.70;1.80;;;9.00;80.20;;;;;;5016480;28;20185;-76
2023/12/23 02:29:46;;;;;;;5.87;1.73;;;9.00;80.30;;;;;;5004757;28;20210;-76
2023/12/23 02:32:13;;;;;;;4.10;1.80;;;9.00;80.80;;;;;;5016196;28;20501;-77
2023/12/23 02:34:41;;;;;;;3.40;1.40;;;8.90;81.20;;;;;;5018276;28;20416;-73
2023/12/23 02:37:06;;;;;;;7.10;1.40;;;8.80;81.70;;;;;;5012284;28;20472;-73
2023/12/23 02:39:32;;;;;;;5.37;1.60;;;8.80;81.80;;;;;;5011710;28;20436;-75
2023/12/23 02:41:58;;;;;;;3.53;1.43;;;8.80;81.90;;;;;;5012402;28;20674;-74
2023/12/23 02:44:23;;;;;;;4.60;1.53;;;8.80;81.80;;;;;;5014270;28;20200;-73
2023/12/23 02:46:49;;;;;;;3.67;1.67;;;8.90;81.80;;;;;;5014230;28;20213;-73
2023/12/23 02:49:14;;;;;;;2.93;1.10;;;8.80;81.80;;;;;;5012824;28;20205;-75
2023/12/23 02:51:40;;;;;;;1.70;1.10;;;8.90;81.50;;;;;;5012582;28;20277;-74
2023/12/23 02:54:05;;;;;;;2.97;1.10;;;8.90;81.20;;;;;;5016157;28;20194;-74
2023/12/23 02:56:31;;;;;;;1.80;1.10;;;8.90;81.20;;;;;;5019463;28;20190;-75
2023/12/23 02:58:57;;;;;;;1.77;1.03;;;8.90;80.80;;;;;;5025125;28;20221;-72
2023/12/23 03:01:22;;;;;;;3.13;1.30;;;9.00;80.80;;;;;;5009730;28;20218;-75
2023/12/23 03:03:48;;;;;;;3.70;1.43;;;9.00;80.50;;;;;;5014000;28;20216;-76
2023/12/23 03:06:14;;;;;;;1.63;1.20;;;9.00;80.30;;;;;;5013819;28;20940;-74
2023/12/23 03:08:40;;;;;;;3.43;1.20;;;9.00;80.50;;;;;;5014170;28;20182;-76
2023/12/23 03:11:06;;;;;;;3.20;1.60;;;9.00;80.30;;;;;;5010533;28;20457;-74
2023/12/23 03:13:31;;;;;;;3.40;1.87;;;9.00;79.70;;;;;;5014809;28;20441;-74
2023/12/23 03:15:57;;;;;;;3.27;1.50;;;9.00;79.50;;;;;;5013597;28;20225;-75
2023/12/23 03:18:23;;;;;;;3.20;1.57;;;9.00;79.30;;;;;;5012640;28;20224;-75
2023/12/23 03:20:49;;;;;;;4.57;1.67;;;9.10;79.00;;;;;;5008484;28;20225;-75
2023/12/23 03:23:15;;;;;;;2.50;1.60;;;9.10;78.70;;;;;;5011995;28;20190;-76
2023/12/23 03:25:41;;;;;;;5.03;2.13;;;9.10;79.00;;;;;;5013274;28;20442;-74
2023/12/23 03:28:06;;;;;;;8.93;1.70;;;9.10;78.40;;;;;;5012520;28;20821;-74
2023/12/23 03:30:32;;;;;;;2.40;1.43;;;9.10;78.40;;;;;;5014733;28;20221;-74
2023/12/23 03:32:57;;;;;;;7.53;2.17;;;9.10;78.40;;;;;;5017325;28;20204;-75
2023/12/23 03:35:23;;;;;;;5.93;1.70;;;9.10;78.10;;;;;;5016127;28;20256;-75
2023/12/23 03:37:49;;;;;;;6.80;1.57;;;9.10;78.30;;;;;;5012214;28;20221;-74
2023/12/23 03:40:14;;;;;;;7.07;2.17;;;9.10;78.10;;;;;;5006925;28;20251;-75
2023/12/23 03:42:40;;;;;;;3.83;1.60;;;9.10;78.00;;;;;;5011368;28;20590;-74
2023/12/23 03:45:07;;;;;;;3.83;1.70;;;9.20;77.80;;;;;;5013103;28;20190;-73
2023/12/23 03:47:34;;;;;;;7.63;1.80;;;9.10;78.00;;;;;;5012479;28;20273;-75
2023/12/23 03:49:59;;;;;;;4.30;1.60;;;9.20;77.80;;;;;;5009299;28;20875;-74
2023/12/23 03:52:25;;;;;;;5.40;1.70;;;9.20;77.80;;;;;;5012215;28;20436;-74
2023/12/23 03:54:51;;;;;;;4.57;1.80;;;9.20;77.80;;;;;;5008971;28;20949;-75
2023/12/23 03:57:16;;;;;;;2.90;1.57;;;9.20;77.40;;;;;;5015042;28;20217;-76
2023/12/23 03:59:42;;;;;;;3.80;1.23;;;9.20;77.40;;;;;;5005073;28;20735;-74
2023/12/23 04:02:08;;;;;;;3.17;1.40;;;9.20;77.40;;;;;;5012479;28;20217;-75
2023/12/23 04:04:38;;;;;;;6.10;1.70;;;9.20;77.70;;;;;;5012940;28;20197;-76
2023/12/23 04:07:04;;;;;;;1.90;1.13;;;9.10;77.70;;;;;;5014807;28;20182;-76
2023/12/23 04:09:30;;;;;;;5.50;1.27;;;9.10;78.10;;;;;;5011083;28;20420;-72
2023/12/23 04:11:55;;;;;;;3.00;1.40;;;9.00;78.40;;;;;;5012240;28;20185;-75
2023/12/23 04:14:21;;;;;;;2.60;1.43;;;9.00;78.40;;;;;;5015348;28;20648;-75
2023/12/23 04:16:47;;;;;;;4.13;1.57;;;9.00;78.60;;;;;;5012412;28;20182;-76
2023/12/23 04:19:13;;;;;;;2.40;1.33;;;9.00;78.10;;;;;;5010829;28;20218;-75
2023/12/23 04:21:38;;;;;;;5.57;1.60;;;9.00;78.40;;;;;;5010029;28;20214;-76
2023/12/23 04:24:04;;;;;;;5.10;1.33;;;9.00;78.40;;;;;;5012354;28;20182;-76
2023/12/23 04:26:31;;;;;;;2.03;1.17;;;9.00;77.70;;;;;;5011733;28;20186;-76
2023/12/23 04:28:57;;;;;;;2.50;1.57;;;9.00;77.80;;;;;;5010791;28;20422;-75
2023/12/23 04:31:23;;;;;;;4.63;1.70;;;9.00;77.70;;;;;;5007397;28;20522;-75
2023/12/23 04:33:49;;;;;;;3.13;1.40;;;9.00;77.70;;;;;;5016572;28;21071;-75
2023/12/23 04:36:14;;;;;;;1.97;1.10;;;9.00;77.60;;;;;;5013539;28;20183;-76
2023/12/23 04:38:40;;;;;;;2.07;1.37;;;9.10;76.80;;;;;;5014360;28;20276;-76
2023/12/23 04:41:07;;;;;;;8.30;1.57;;;9.10;77.00;;;;;;5013682;28;20240;-74
2023/12/23 04:43:33;;;;;;;1.93;1.20;;;9.10;76.50;;;;;;5012016;28;20709;-75
2023/12/23 04:45:58;;;;;;;3.43;1.17;;;9.10;76.20;;;;;;5012343;28;20420;-74
2023/12/23 04:48:27;;;;;;;3.50;1.33;;;9.20;75.40;;;;;;5011450;28;20308;-74
2023/12/23 04:50:53;;;;;;;3.50;1.13;;;9.20;75.20;;;;;;5006301;28;20259;-75
2023/12/23 04:53:21;;;;;;;1.70;1.17;;;9.20;75.20;;;;;;5011711;28;20496;-76
2023/12/23 04:55:46;;;;;;;2.63;1.20;;;9.20;74.50;;;;;;5016980;28;20736;-75
2023/12/23 04:58:12;;;;;;;2.07;1.07;;;9.20;74.30;;;;;;5010885;28;20618;-75
2023/12/23 05:00:37;;;;;;;3.83;1.23;;;9.20;74.30;;;;;;5007042;28;20213;-74
2023/12/23 05:03:03;;;;;;;2.13;1.13;;;9.30;73.90;;;;;;5011682;28;20182;-76
2023/12/23 05:05:29;;;;;;;1.70;1.10;;;9.30;74.00;;;;;;5011796;28;20186;-75
2023/12/23 05:07:54;;;;;;;1.73;1.17;;;9.30;73.60;;;;;;5011977;28;20244;-76
2023/12/23 05:10:20;;;;;;;1.93;1.00;;;9.30;73.60;;;;;;5010514;28;20206;-75
2023/12/23 05:12:46;;;;;;;3.63;1.10;;;9.30;73.00;;;;;;5011552;28;20217;-76
2023/12/23 05:15:11;;;;;;;3.90;1.27;;;9.30;73.20;;;;;;5011250;28;20194;-76
2023/12/23 05:17:37;;;;;;;6.27;0.90;;;9.30;73.00;;;;;;5010860;28;20213;-76
2023/12/23 05:20:03;;;;;;;1.23;0.97;;;9.30;72.90;;;;;;5009300;28;20236;-75
2023/12/23 05:22:28;;;;;;;2.80;1.10;;;9.30;73.30;;;;;;5020092;28;20178;-76
2023/12/23 05:24:54;;;;;;;3.50;0.97;;;9.30;73.20;;;;;;5018157;28;20414;-76
2023/12/23 05:27:19;;;;;;;2.83;1.00;;;9.30;73.20;;;;;;5010831;28;20661;-77
2023/12/23 05:29:47;;;;;;;1.77;1.03;;;9.30;73.50;;;;;;5016782;28;20214;-77
2023/12/23 05:32:13;;;;;;;1.93;1.40;;;9.30;73.70;;;;;;5020376;28;20196;-75
2023/12/23 05:34:38;;;;;;;2.17;0.93;;;9.30;73.90;;;;;;5024912;28;20800;-76
2023/12/23 05:37:04;;;;;;;2.97;0.80;;;9.30;74.20;;;;;;5019504;28;20186;-76
2023/12/23 05:39:29;;;;;;;1.47;0.83;;;9.30;74.20;;;;;;5011346;28;20626;-75
2023/12/23 05:41:55;;;;;;;1.43;0.87;;;9.30;74.50;;;;;;5015558;28;20193;-75
2023/12/23 05:44:20;;;;;;;3.53;0.97;;;9.30;74.50;;;;;;5020943;28;20218;-75
2023/12/23 05:46:46;;;;;;;2.07;1.20;;;9.30;74.60;;;;;;5007807;28;20190;-76
2023/12/23 05:49:12;;;;;;;1.10;0.60;;;9.30;74.60;;;;;;5010590;28;20201;-75
2023/12/23 05:51:38;;;;;;;1.40;0.60;;;9.30;74.90;;;;;;5005125;28;20721;-76
2023/12/23 05:54:03;;;;;;;1.20;0.77;;;9.20;75.40;;;;;;5014371;28;20493;-75
2023/12/23 05:56:29;;;;;;;1.90;0.80;;;9.20;76.20;;;;;;5013978;28;20193;-74
2023/12/23 05:58:56;;;;;;;2.13;0.70;;;9.00;77.40;;;;;;5013357;28;20217;-74
2023/12/23 06:01:22;;;;;;;0.90;0.67;;;8.90;78.40;;;;;;5010821;28;20694;-76
2023/12/23 06:03:48;;;;;;;0.90;0.60;;;8.80;79.50;;;;;;5023704;28;20436;-75
2023/12/23 06:06:13;;;;;;;1.13;0.70;;;8.70;80.30;;;;;;5013056;28;20429;-75
2023/12/23 06:08:39;;;;;;;1.10;0.60;;;8.70;80.60;;;;;;5010855;28;20213;-76
2023/12/23 06:11:07;;;;;;;2.60;0.60;;;8.70;81.10;;;;;;5009432;28;20583;-77
2023/12/23 06:13:33;;;;;;;0.70;0.50;;;8.60;81.40;;;;;;5008851;28;20436;-75
2023/12/23 06:16:04;;;;;;;1.37;0.57;;;8.60;81.50;;;;;;5014985;28;20417;-75
2023/12/23 06:18:30;;;;;;;0.97;0.50;;;8.60;81.50;;;;;;5010963;28;20491;-76
2023/12/23 06:20:56;;;;;;;2.30;0.77;;;8.60;81.50;;;;;;5006016;28;21031;-76
2023/12/23 06:23:21;;;;;;;0.80;0.60;;;8.60;81.50;;;;;;5010967;28;20976;-75
2023/12/23 06:25:47;;;;;;;3.13;0.50;;;8.60;81.70;;;;;;5005414;28;20186;-76
2023/12/23 06:28:12;;;;;;;0.50;0.40;;;8.50;81.80;;;;;;5014160;28;20202;-75
2023/12/23 06:30:38;;;;;;;0.90;0.60;;;8.50;81.50;;;;;;5006001;28;20209;-75
2023/12/23 06:33:03;;;;;;;0.80;0.40;;;8.60;81.20;;;;;;5012557;28;20206;-75
2023/12/23 06:35:29;;;;;;;0.80;0.50;;;8.60;80.90;;;;;;5010035;28;20220;-75
2023/12/23 06:37:55;;;;;;;1.27;0.80;;;8.60;80.80;;;;;;5007944;28;20205;-75
2023/12/23 06:40:20;;;;;;;1.00;0.50;;;8.70;80.80;;;;;;5009687;28;20734;-76
2023/12/23 06:42:46;;;;;;;1.90;0.73;;;8.70;80.50;;;;;;5007895;28;20186;-74
2023/12/23 06:45:12;;;;;;;0.70;0.50;;;8.70;80.50;;;;;;5009779;28;20194;-76
2023/12/23 06:47:38;;;;;;;1.20;0.60;;;8.70;80.30;;;;;;5012918;28;20190;-74
2023/12/23 06:50:04;;;;;;;2.87;0.70;;;8.80;80.20;;;;;;5008592;28;20461;-76
2023/12/23 06:52:29;;;;;;;1.20;0.60;;;8.80;79.90;;;;;;5012236;28;20186;-76
2023/12/23 06:54:55;;;;;;;1.43;0.60;;;8.70;80.20;;;;;;5008011;28;20436;-76
2023/12/23 06:57:20;;;;;;;0.60;0.50;;;8.70;80.60;;;;;;5009647;28;20388;-75
2023/12/23 06:59:46;;;;;;;1.77;0.70;;;8.60;80.80;;;;;;5006394;28;20275;-74
2023/12/23 07:02:12;;;;;;;0.60;0.40;;;8.60;81.10;;;;;;5009333;28;20197;-74
2023/12/23 07:04:38;;;;;;;1.10;0.50;;;8.60;81.20;;;;;;5010394;28;20186;-75
2023/12/23 07:07:03;;;;;;;0.70;0.60;;;8.60;80.80;;;;;;5011155;28;20504;-77
2023/12/23 07:09:29;;;;;;;1.40;0.67;;;8.70;80.80;;;;;;5010081;28;20213;-76
2023/12/23 07:11:54;;;;;;;1.83;0.60;;;8.70;80.30;;;;;;5013595;28;20216;-76
2023/12/23 07:14:20;;;;;;;1.00;0.60;;;8.70;80.50;;;;;;5018562;28;20189;-76
2023/12/23 07:16:46;;;;;;;1.50;0.63;;;8.70;81.10;;;;;;5017255;28;20178;-75
2023/12/23 07:19:14;;;;;;;0.60;0.50;;;8.70;80.60;;;;;;5015389;28;20225;-76
2023/12/23 07:21:40;;;;;;;4.40;0.70;;;8.70;80.80;;;;;;5012675;28;20527;-75
2023/12/23 07:24:06;;;;;;;2.70;0.80;;;8.70;80.80;;;;;;5017824;28;20468;-76
2023/12/23 07:26:34;;;;;;;0.80;0.50;;;8.70;81.20;;;;;;5016217;28;20674;-74
2023/12/23 07:29:03;;;;;;;0.60;0.50;;;8.70;80.90;;;;;;5013606;28;20429;-74
2023/12/23 07:31:32;;;;;;;1.40;0.70;;;8.60;80.90;;;;;;5009909;28;20982;-75
2023/12/23 07:34:00;;;;;;;0.70;0.60;;;8.70;80.80;;;;;;5016423;28;20472;-73
2023/12/23 07:36:25;;;;;;;0.70;0.60;;;8.70;80.80;;;;;;5018319;28;20427;-76
2023/12/23 07:38:51;;;;;;;1.23;0.70;;;8.70;80.50;;;;;;5018336;28;20578;-75
2023/12/23 07:41:16;;;;;;;1.37;0.53;;;8.70;80.00;;;;;;5013045;28;20237;-76
2023/12/23 07:43:42;;;;;;;1.50;0.57;;;8.80;79.70;;;;;;5016051;28;20204;-77
2023/12/23 07:46:08;;;;;;;1.63;0.50;;;8.80;79.50;;;;;;5016413;28;20200;-76
2023/12/23 07:48:34;;;;;;;0.60;0.40;;;8.80;79.20;;;;;;5013101;28;20236;-73
2023/12/23 07:51:08;;;;;;;1.23;0.70;;;8.80;79.30;;;;;;5011816;28;20481;-75
2023/12/23 07:53:33;;;;;;;1.70;0.80;;;8.80;78.90;;;;;;5014632;28;20312;-76
2023/12/23 07:55:59;;;;;;;1.20;0.70;;;8.90;79.20;;;;;;5012013;28;21139;-76
2023/12/23 07:58:25;;;;;;;1.13;0.70;;;8.90;79.20;;;;;;5006314;28;20218;-76
2023/12/23 08:00:50;;;;;;;1.20;0.60;;;8.90;79.20;;;;;;5005977;28;20213;-75
2023/12/23 08:03:16;;;;;;;0.70;0.50;;;8.90;79.20;;;;;;5007998;28;20268;-76
2023/12/23 08:05:41;;;;;;;1.20;0.70;;;8.90;79.00;;;;;;5010989;28;20194;-75
2023/12/23 08:08:09;;;;;;;1.73;0.80;;;8.90;79.00;;;;;;5009634;28;20194;-77
2023/12/23 08:10:35;;;;;;;0.80;0.67;;;8.90;79.30;;;;;;5005691;28;20216;-75
2023/12/23 08:13:01;;;;;;;1.57;0.80;;;8.90;79.20;;;;;;5009134;28;20425;-77
2023/12/23 08:15:27;;;;;;;1.27;0.47;;;8.90;79.50;;;;;;5013404;28;20240;-77
2023/12/23 08:17:52;;;;;;;5.20;0.70;;;8.90;79.00;;;;;;5011517;28;20575;-75
2023/12/23 08:20:18;;;;;;;0.80;0.53;;;8.90;79.50;;;;;;5008983;28;20233;-76
2023/12/23 08:22:44;;;;;;;1.83;0.70;;;8.90;79.00;;;;;;5011250;28;20670;-75
2023/12/23 08:25:10;;;;;;;0.60;0.50;;;8.90;78.90;;;;;;5015488;28;20221;-76
2023/12/23 08:27:38;;;;;;;0.67;0.50;;;8.90;78.30;;;;;;5017921;28;20463;-75
2023/12/23 08:30:08;;;;;;;0.97;0.70;;;9.00;78.10;;;;;;5008853;28;20345;-76
2023/12/23 08:32:34;;;;;;;0.70;0.50;;;9.00;77.70;;;;;;5010569;28;20424;-76
2023/12/23 08:35:00;;;;;;;0.90;0.60;;;9.00;77.30;;;;;;5018998;28;20429;-76
2023/12/23 08:37:26;;;;;;;0.87;0.60;;;9.10;77.00;;;;;;5017864;28;20876;-75
2023/12/23 08:39:53;;;;;;;0.70;0.40;;;9.20;76.80;;;;;;5013371;28;20996;-76
2023/12/23 08:42:19;;;;;;;1.00;0.77;;;9.10;76.50;;;;;;5012146;28;20427;-76
2023/12/23 08:44:44;;;;;;;1.70;0.77;;;9.10;77.10;;;;;;5011566;28;20413;-75
2023/12/23 08:47:12;;;;;;;0.70;0.53;;;9.20;76.80;;;;;;5010589;28;20720;-74
2023/12/23 08:49:39;;;;;;;0.60;0.50;;;9.20;76.10;;;;;;5010934;28;20182;-77
2023/12/23 08:52:05;;;;;;;0.80;0.50;;;9.20;75.80;;;;;;5015504;28;20444;-76
2023/12/23 08:54:31;;;;;;;0.70;0.50;;;9.20;76.10;;;;;;5012509;28;20452;-75
2023/12/23 08:56:56;;;;;;;0.60;0.50;;;9.20;76.50;;;;;;5013226;28;20441;-76
2023/12/23 08:59:22;;;;;;;0.80;0.60;;;9.30;75.80;;;;;;5015059;28;20229;-76
2023/12/23 09:01:48;;;;;;;0.87;0.60;;;9.30;76.10;;;;;;5011131;28;20200;-74
2023/12/23 09:04:13;;;;;;;0.70;0.50;;;9.30;76.10;;;;;;5012672;28;20629;-75
2023/12/23 09:06:39;;;;;;;0.80;0.60;;;9.30;75.70;;;;;;5006409;28;20194;-74
2023/12/23 09:09:04;;;;;;;0.70;0.60;;;9.20;75.50;;;;;;5008699;28;20190;-73
2023/12/23 09:11:30;;;;;;;1.40;0.70;;;9.30;75.80;;;;;;5008300;28;20218;-75
2023/12/23 09:13:55;;;;;;;0.87;0.60;;;9.30;75.90;;;;;;5013144;28;20202;-74
2023/12/23 09:16:21;;;;;;;0.60;0.50;;;9.40;75.50;;;;;;5014802;28;20178;-73
2023/12/23 09:18:47;;;;;;;3.37;0.60;;;9.30;75.40;;;;;;5020334;28;20232;-75
2023/12/23 09:21:12;;;;;;;1.70;0.70;;;9.40;74.90;;;;;;5007321;28;20281;-75
2023/12/23 09:23:38;;;;;;;1.20;0.60;;;9.40;75.10;;;;;;5010681;28;20284;-74
2023/12/23 09:26:03;;;;;;;0.60;0.50;;;9.40;74.60;;;;;;5010792;28;20593;-75
2023/12/23 09:28:29;;;;;;;1.60;0.60;;;9.40;74.30;;;;;;5009701;28;20217;-74
2023/12/23 09:30:55;;;;;;;1.00;0.60;;;9.50;74.60;;;;;;5003299;28;20756;-75
2023/12/23 09:33:22;;;;;;;0.90;0.60;;;9.50;74.20;;;;;;5019383;28;20424;-74
2023/12/23 09:35:47;;;;;;;2.20;0.50;;;9.50;73.70;;;;;;5031505;28;20205;-75
2023/12/23 09:38:13;;;;;;;0.70;0.50;;;9.60;73.70;;;;;;5033317;28;20507;-73
2023/12/23 09:40:39;;;;;;;0.83;0.50;;;9.50;73.00;;;;;;5012180;28;20239;-73
2023/12/23 09:43:05;;;;;;;2.50;0.80;;;9.60;73.00;;;;;;5016876;28;20277;-74
2023/12/23 09:45:34;;;;;;;1.67;0.70;;;9.60;73.00;;;;;;5012300;28;20194;-72
2023/12/23 09:48:01;;;;;;;0.97;0.70;;;9.70;73.30;;;;;;5012701;28;20493;-75
2023/12/23 09:50:27;;;;;;;0.60;0.50;;;9.70;73.00;;;;;;5009319;28;20453;-73
2023/12/23 09:52:54;;;;;;;1.00;0.70;;;9.70;72.90;;;;;;5015564;28;20479;-74
2023/12/23 09:55:21;;;;;;;1.80;0.60;;;9.60;73.30;;;;;;5015536;28;20182;-74
2023/12/23 09:57:47;;;;;;;0.70;0.50;;;9.60;73.20;;;;;;5012570;28;20556;-73
2023/12/23 10:00:13;;;;;;;2.03;0.60;;;9.60;73.20;;;;;;5010244;28;20469;-73
2023/12/23 10:02:39;;;;;;;0.90;0.60;;;9.60;73.20;;;;;;5018295;28;20278;-73
2023/12/23 10:05:05;;;;;;;0.70;0.50;;;9.60;73.20;;;;;;5014376;28;20482;-74
2023/12/23 10:07:31;;;;;;;0.87;0.70;;;9.60;72.70;;;;;;5014013;28;20666;-74
2023/12/23 10:09:58;;;;;;;0.70;0.50;;;9.60;73.30;;;;;;5010052;28;20229;-75
2023/12/23 10:12:23;;;;;;;0.93;0.70;;;9.60;73.30;;;;;;5014316;28;20439;-73
2023/12/23 10:14:49;;;;;;;1.00;0.63;;;9.70;72.70;;;;;;5014420;28;20548;-75
2023/12/23 10:17:17;;;;;;;1.70;0.60;;;9.60;72.70;;;;;;5013038;28;20185;-75
2023/12/23 10:19:42;;;;;;;0.60;0.40;;;9.60;72.60;;;;;;5007761;28;20236;-74
2023/12/23 10:22:08;;;;;;;1.30;0.60;;;9.70;72.70;;;;;;5006544;28;20429;-74
2023/12/23 10:24:37;;;;;;;1.13;0.60;;;9.70;72.70;;;;;;5007244;28;20741;-75
2023/12/23 10:27:04;;;;;;;0.60;0.40;;;9.70;72.40;;;;;;5003787;28;20183;-73
2023/12/23 10:29:32;;;;;;;1.73;0.50;;;9.60;72.70;;;;;;5005418;28;20479;-73
2023/12/23 10:32:03;;;;;;;0.70;0.50;;;9.50;73.00;;;;;;5009363;28;20441;-75
2023/12/23 10:34:54;;;;;;;0.77;0.60;;;9.60;73.30;;;;;;5013555;28;20813;-75
2023/12/23 10:37:23;;;;;;;1.20;0.70;;;9.50;73.60;;;;;;5020541;28;20441;-75
2023/12/23 10:40:09;;;;;;;0.80;0.60;;;9.50;73.70;;;;;;5012451;28;21976;-75
2023/12/23 10:42:37;;;;;;;0.70;0.50;;;9.50;73.70;;;;;;5015019;28;20439;-75
2023/12/23 10:45:05;;;;;;;1.17;0.80;;;9.60;73.70;;;;;;5012175;28;20512;-75
2023/12/23 10:47:32;;;;;;;0.87;0.53;;;9.60;73.70;;;;;;5011141;28;20429;-75
2023/12/23 10:50:00;;;;;;;1.00;0.50;;;9.60;73.60;;;;;;5004707;28;20456;-75
2023/12/23 10:52:26;;;;;;;1.00;0.50;;;9.60;73.70;;;;;;5009729;28;20436;-73
2023/12/23 10:54:52;;;;;;;1.03;0.53;;;9.60;73.60;;;;;;5014438;28;20429;-76
2023/12/23 10:57:22;;;;;;;0.70;0.50;;;9.70;73.70;;;;;;5013835;28;20448;-75
2023/12/23 10:59:48;;;;;;;0.80;0.60;;;9.70;73.60;;;;;;5008884;28;20517;-74
2023/12/23 11:02:19;;;;;;;1.70;0.50;;;9.70;74.00;;;;;;5013223;28;20416;-73
2023/12/23 11:04:50;;;;;;;1.10;0.57;;;9.70;73.70;;;;;;5014000;28;20421;-75
2023/12/23 11:07:18;;;;;;;0.67;0.50;;;9.80;73.20;;;;;;5013295;28;20425;-75
2023/12/23 11:09:46;;;;;;;0.80;0.50;;;9.70;73.30;;;;;;5012617;28;20461;-75
2023/12/23 11:12:12;;;;;;;1.37;0.70;;;9.70;73.30;;;;;;5014432;28;20437;-76
2023/12/23 11:14:37;;;;;;;0.60;0.40;;;9.80;73.20;;;;;;5017711;28;20412;-75
2023/12/23 11:17:22;;;;;;;1.00;0.43;;;9.70;72.70;;;;;;5018626;28;20182;-73
2023/12/23 11:19:48;;;;;;;0.60;0.40;;;9.80;73.00;;;;;;5013684;28;20324;-74
2023/12/23 11:22:21;;;;;;;1.50;0.50;;;9.70;72.70;;;;;;5016871;28;20453;-74
2023/12/23 11:24:47;;;;;;;0.67;0.50;;;9.70;73.00;;;;;;5016144;28;20189;-75
2023/12/23 11:27:32;;;;;;;0.67;0.50;;;9.70;72.60;;;;;;5013698;28;20420;-75
2023/12/23 11:29:59;;;;;;;0.70;0.60;;;9.70;72.90;;;;;;5010599;28;20213;-75
2023/12/23 11:32:25;;;;;;;0.70;0.50;;;9.70;72.90;;;;;;5016513;28;20448;-76
2023/12/23 11:34:52;;;;;;;1.03;0.67;;;9.80;72.60;;;;;;5019935;28;20440;-74
2023/12/23 11:37:17;;;;;;;0.60;0.50;;;9.90;72.30;;;;;;5024418;28;20416;-74
2023/12/23 11:39:44;;;;;;;0.97;0.70;;;9.80;72.40;;;;;;5021811;28;20955;-74
2023/12/23 11:42:12;;;;;;;0.83;0.60;;;9.90;72.60;;;;;;5015545;28;20197;-74
2023/12/23 11:44:40;;;;;;;1.13;0.63;;;9.90;72.40;;;;;;5013882;28;20425;-74
2023/12/23 11:47:07;;;;;;;0.93;0.50;;;9.90;72.00;;;;;;5012771;28;20413;-75
2023/12/23 11:49:34;;;;;;;2.20;0.50;;;9.90;71.70;;;;;;5011744;28;20412;-75
2023/12/23 11:52:00;;;;;;;1.57;0.50;;;10.00;71.60;;;;;;5011977;28;20929;-75
2023/12/23 11:54:27;;;;;;;2.20;0.60;;;10.00;71.40;;;;;;5017562;28;20421;-74
2023/12/23 11:56:52;;;;;;;0.70;0.47;;;10.00;71.70;;;;;;5014261;28;20976;-74
2023/12/23 11:59:21;;;;;;;0.60;0.50;;;9.90;71.10;;;;;;5015751;28;20468;-74
2023/12/23 12:01:47;;;;;;;1.30;0.80;;;10.00;71.40;;;;;;5009189;28;20190;-73
2023/12/23 12:04:13;;;;;;;1.20;0.70;;;9.90;71.60;;;;;;5015538;28;20460;-74
2023/12/23 12:06:39;;;;;;;1.83;0.90;;;9.90;71.80;;;;;;5016851;28;20185;-74
2023/12/23 12:09:06;;;;;;;0.60;0.50;;;10.00;71.40;;;;;;5014154;28;20455;-74
2023/12/23 12:11:32;;;;;;;0.70;0.50;;;10.00;71.60;;;;;;5017690;28;20457;-73
2023/12/23 12:13:59;;;;;;;2.00;0.70;;;10.00;72.00;;;;;;5020638;28;20439;-75
2023/12/23 12:16:24;;;;;;;1.00;0.60;;;9.90;71.80;;;;;;5023148;28;20511;-75
2023/12/23 12:18:50;;;;;;;1.10;0.60;;;10.00;72.00;;;;;;5021985;28;21014;-74
2023/12/23 12:21:16;;;;;;;2.10;0.70;;;9.90;71.80;;;;;;5017890;28;20209;-75
2023/12/23 12:23:42;;;;;;;0.60;0.40;;;9.90;71.80;;;;;;5017372;28;20269;-75
2023/12/23 12:26:08;;;;;;;0.80;0.50;;;9.90;71.80;;;;;;5015208;28;20190;-75
2023/12/23 12:28:34;;;;;;;1.20;0.60;;;9.90;71.80;;;;;;5015044;28;20440;-75
2023/12/23 12:31:13;;;;;;;2.50;0.67;;;9.90;71.70;;;;;;5011570;28;20460;-74
2023/12/23 12:33:42;;;;;;;0.50;0.40;;;9.90;71.70;;;;;;5011998;28;20279;-75
2023/12/23 12:36:13;;;;;;;0.83;0.60;;;9.90;71.70;;;;;;5018536;28;20433;-75
2023/12/23 12:38:40;;;;;;;0.63;0.50;;;10.00;71.70;;;;;;5020371;28;20508;-74
2023/12/23 12:41:07;;;;;;;0.70;0.50;;;10.00;71.30;;;;;;5017506;28;20520;-74
2023/12/23 12:43:36;;;;;;;0.60;0.40;;;10.00;70.70;;;;;;5019318;28;20429;-75
2023/12/23 12:46:02;;;;;;;1.03;0.50;;;10.00;71.00;;;;;;5018879;28;20460;-75
2023/12/23 12:48:28;;;;;;;0.60;0.50;;;10.00;71.10;;;;;;5019389;28;20429;-74
2023/12/23 12:50:55;;;;;;;1.40;0.50;;;10.00;71.30;;;;;;5015592;28;20482;-75